KPBF/PBF METAR and TAF weather

Enter ICAO airport designator
Station Type Date Time Source
KPBF METAR 2021/09/23 10:53 UTC NOAA

KPBF 231053Z AUTO 00000KT 10SM CLR 12/09 A3014 RMK AO2 SLP204 T01170089


Station Type Date Time Source
KPBF Decoded METAR 2021/09/23 10:53 UTC NOAA

PINE BLUFF GRIDER FIELD, AR, United States (KPBF) 34-11N 091-56W 62M
Sep 23, 2021 - 06:53 AM EDT / 2021.09.23 1053 UTC
Wind: Calm:0
Visibility: 10 mile(s):0
Sky conditions: clear
Temperature: 53.1 F (11.7 C)
Dew Point: 48.0 F (8.9 C)
Relative Humidity: 82%
Pressure (altimeter): 30.14 in. Hg (1020 hPa)
ob: KPBF 231053Z AUTO 00000KT 10SM CLR 12/09 A3014 RMK AO2 SLP204 T01170089
cycle: 11

Station Type Date Time Source
KPBF TAF 2021/09/27 06:36 UTC NOAA

TAF KPBF 270534Z 2706/2806 18004KT P6SM SCT250
FM271500 20008KT P6SM SCT250
FM280000 18004KT P6SM BKN250
AMD NOT SKED

Example: see airport list